Aviation Digital Data Service (ADDS)

Output produced by METARs form (1028 UTC 20 July 2018)
found at http://aviationweather.gov/adds/metars/
 
KSAV 201020Z 17003KT 10SM FEW021 SCT170 OVC210 24/24 A2992 RMK AO2 T02440239
KSVN 200956Z 00000KT 10SM FEW005 BKN021 BKN200 24/23 A2991 RMK AO2A SLPNO ALSTG/SLP ESTMD T02440233 $
KLHW 201006Z AUTO 15004KT 10SM OVC004 24/23 M RMK AO2 CIG 004V006 SLPNO $
KTBR 201015Z AUTO 00000KT 10SM OVC012 24/24 A2991 RMK AO2 T02400235
KVDI 201015Z AUTO 00000KT 10SM SCT004 SCT009 OVC016 24/22 A2993 RMK AO2
KJYL 201015Z AUTO 00000KT 5SM -RA SCT002 BKN007 OVC034 25/25 A2991 RMK AO2 T02450245
KDBN 201015Z AUTO 00000KT 7SM SCT004 BKN009 OVC034 23/23 A2995 RMK AO2
KJES 200938Z AUTO 00000KT 10SM OVC004 25/23 A2992 RMK AO2
KSSI 201000Z AUTO 21008KT 10SM FEW024 BKN029 BKN050 26/23 A2991 RMK AO2 T02610233
KBQK 201015Z AUTO 23003KT 10SM SCT021 SCT026 BKN038 25/23 A2993 RMK AO2
KAYS 201015Z AUTO 00000KT 10SM BKN004 OVC013 25/23 A2992 RMK AO2 T02450227
KNBC 200956Z AUTO 09003KT 10SM BKN033 BKN041 OVC050 25/25 A2992 RMK AO2 SLP132 T02500250
KHXD 200955Z AUTO 00000KT 4SM BR FEW024 25/24 A2992 RMK AO2